sensor_id;sensor_type;location;lat;lon;timestamp;temperature;humidity
53053;DHT22;38934;52.690;6.184;2024-03-29T00:00:43;7.80;99.90
53053;DHT22;38934;52.690;6.184;2024-03-29T00:03:12;7.80;99.90
53053;DHT22;38934;52.690;6.184;2024-03-29T00:05:37;7.90;99.90
53053;DHT22;38934;52.690;6.184;2024-03-29T00:08:04;8.10;99.90
53053;DHT22;38934;52.690;6.184;2024-03-29T00:10:30;7.80;99.90
53053;DHT22;38934;52.690;6.184;2024-03-29T00:12:55;7.80;99.90
53053;DHT22;38934;52.690;6.184;2024-03-29T00:15:21;7.90;99.90
53053;DHT22;38934;52.690;6.184;2024-03-29T00:17:46;7.80;99.90
53053;DHT22;38934;52.690;6.184;2024-03-29T00:20:12;8.40;99.90
53053;DHT22;38934;52.690;6.184;2024-03-29T00:22:38;7.90;99.90
53053;DHT22;38934;52.690;6.184;2024-03-29T00:25:04;7.90;99.90
53053;DHT22;38934;52.690;6.184;2024-03-29T00:27:30;7.80;99.90
53053;DHT22;38934;52.690;6.184;2024-03-29T00:29:56;8.60;99.90
53053;DHT22;38934;52.690;6.184;2024-03-29T00:32:22;7.80;99.90
53053;DHT22;38934;52.690;6.184;2024-03-29T00:34:52;7.80;99.90
53053;DHT22;38934;52.690;6.184;2024-03-29T00:37:18;8.20;99.90
53053;DHT22;38934;52.690;6.184;2024-03-29T00:39:44;7.70;99.90
53053;DHT22;38934;52.690;6.184;2024-03-29T00:42:10;7.70;99.90
53053;DHT22;38934;52.690;6.184;2024-03-29T00:44:44;7.70;99.90
53053;DHT22;38934;52.690;6.184;2024-03-29T00:47:10;7.70;99.90
53053;DHT22;38934;52.690;6.184;2024-03-29T00:49:36;7.70;99.90
53053;DHT22;38934;52.690;6.184;2024-03-29T00:52:02;7.70;99.90
53053;DHT22;38934;52.690;6.184;2024-03-29T00:54:29;7.70;99.90
53053;DHT22;38934;52.690;6.184;2024-03-29T00:56:54;7.70;99.90
53053;DHT22;38934;52.690;6.184;2024-03-29T00:59:20;7.70;99.90
53053;DHT22;38934;52.690;6.184;2024-03-29T01:01:46;7.70;99.90
53053;DHT22;38934;52.690;6.184;2024-03-29T01:04:12;7.80;99.90
53053;DHT22;38934;52.690;6.184;2024-03-29T01:06:38;8.30;99.90
53053;DHT22;38934;52.690;6.184;2024-03-29T01:09:04;7.70;99.90
53053;DHT22;38934;52.690;6.184;2024-03-29T01:11:30;7.70;99.90
53053;DHT22;38934;52.690;6.184;2024-03-29T01:13:56;7.90;99.90
53053;DHT22;38934;52.690;6.184;2024-03-29T01:16:22;7.70;99.90
53053;DHT22;38934;52.690;6.184;2024-03-29T01:18:48;7.90;99.90
53053;DHT22;38934;52.690;6.184;2024-03-29T01:21:15;8.70;99.90
53053;DHT22;38934;52.690;6.184;2024-03-29T01:23:41;7.70;99.90
53053;DHT22;38934;52.690;6.184;2024-03-29T01:26:07;7.80;99.90
53053;DHT22;38934;52.690;6.184;2024-03-29T01:28:33;7.80;99.90
53053;DHT22;38934;52.690;6.184;2024-03-29T01:30:59;7.80;99.90
53053;DHT22;38934;52.690;6.184;2024-03-29T01:33:25;7.80;99.90
53053;DHT22;38934;52.690;6.184;2024-03-29T01:35:51;7.90;99.90
53053;DHT22;38934;52.690;6.184;2024-03-29T01:38:17;7.90;99.90
53053;DHT22;38934;52.690;6.184;2024-03-29T01:40:43;8.20;99.90
53053;DHT22;38934;52.690;6.184;2024-03-29T01:43:08;7.80;99.90
53053;DHT22;38934;52.690;6.184;2024-03-29T01:45:39;7.80;99.90
53053;DHT22;38934;52.690;6.184;2024-03-29T01:48:06;8.50;99.90
53053;DHT22;38934;52.690;6.184;2024-03-29T01:50:32;7.80;99.90
53053;DHT22;38934;52.690;6.184;2024-03-29T01:52:59;8.50;99.90
53053;DHT22;38934;52.690;6.184;2024-03-29T01:55:25;7.70;99.90
53053;DHT22;38934;52.690;6.184;2024-03-29T01:57:51;7.70;99.90
53053;DHT22;38934;52.690;6.184;2024-03-29T02:00:18;7.70;99.90
53053;DHT22;38934;52.690;6.184;2024-03-29T02:02:44;7.70;99.90
53053;DHT22;38934;52.690;6.184;2024-03-29T02:05:10;7.60;99.90
53053;DHT22;38934;52.690;6.184;2024-03-29T02:07:36;8.50;99.90
53053;DHT22;38934;52.690;6.184;2024-03-29T02:10:03;8.20;99.90
53053;DHT22;38934;52.690;6.184;2024-03-29T02:12:29;7.50;99.90
53053;DHT22;38934;52.690;6.184;2024-03-29T02:14:54;8.20;99.90
53053;DHT22;38934;52.690;6.184;2024-03-29T02:17:21;7.70;99.90
53053;DHT22;38934;52.690;6.184;2024-03-29T02:19:46;7.50;99.90
53053;DHT22;38934;52.690;6.184;2024-03-29T02:22:15;7.90;99.90
53053;DHT22;38934;52.690;6.184;2024-03-29T02:24:41;7.50;99.90
53053;DHT22;38934;52.690;6.184;2024-03-29T02:27:06;7.40;99.90
53053;DHT22;38934;52.690;6.184;2024-03-29T02:29:32;7.40;99.90
53053;DHT22;38934;52.690;6.184;2024-03-29T02:32:03;7.40;99.90
53053;DHT22;38934;52.690;6.184;2024-03-29T02:34:28;7.40;99.90
53053;DHT22;38934;52.690;6.184;2024-03-29T02:36:54;7.40;99.90
53053;DHT22;38934;52.690;6.184;2024-03-29T02:39:20;7.30;99.90
53053;DHT22;38934;52.690;6.184;2024-03-29T02:41:45;7.30;99.90
53053;DHT22;38934;52.690;6.184;2024-03-29T02:44:11;7.30;99.90
53053;DHT22;38934;52.690;6.184;2024-03-29T02:46:36;8.00;99.90
53053;DHT22;38934;52.690;6.184;2024-03-29T02:49:02;7.40;99.90
53053;DHT22;38934;52.690;6.184;2024-03-29T02:51:28;7.50;99.90
53053;DHT22;38934;52.690;6.184;2024-03-29T02:53:54;7.40;99.90
53053;DHT22;38934;52.690;6.184;2024-03-29T02:56:20;7.40;99.90
53053;DHT22;38934;52.690;6.184;2024-03-29T02:58:48;7.40;99.90
53053;DHT22;38934;52.690;6.184;2024-03-29T03:01:14;7.40;99.90
53053;DHT22;38934;52.690;6.184;2024-03-29T03:03:40;7.40;99.90
53053;DHT22;38934;52.690;6.184;2024-03-29T03:06:05;7.40;99.90
53053;DHT22;38934;52.690;6.184;2024-03-29T03:08:31;7.40;99.90
53053;DHT22;38934;52.690;6.184;2024-03-29T03:11:15;8.10;99.90
53053;DHT22;38934;52.690;6.184;2024-03-29T03:13:41;7.30;99.90
53053;DHT22;38934;52.690;6.184;2024-03-29T03:16:06;7.40;99.90
53053;DHT22;38934;52.690;6.184;2024-03-29T03:18:32;7.30;99.90
53053;DHT22;38934;52.690;6.184;2024-03-29T03:20:59;7.30;99.90
53053;DHT22;38934;52.690;6.184;2024-03-29T03:23:25;7.30;99.90
53053;DHT22;38934;52.690;6.184;2024-03-29T03:26:02;7.30;99.90
53053;DHT22;38934;52.690;6.184;2024-03-29T03:28:31;7.40;99.90
53053;DHT22;38934;52.690;6.184;2024-03-29T03:30:57;7.40;99.90
53053;DHT22;38934;52.690;6.184;2024-03-29T03:33:23;7.40;99.90
53053;DHT22;38934;52.690;6.184;2024-03-29T03:35:49;8.20;99.90
53053;DHT22;38934;52.690;6.184;2024-03-29T03:38:15;7.40;99.90
53053;DHT22;38934;52.690;6.184;2024-03-29T03:40:41;7.40;99.90
53053;DHT22;38934;52.690;6.184;2024-03-29T03:43:07;7.40;99.90
53053;DHT22;38934;52.690;6.184;2024-03-29T03:45:39;7.40;99.90
53053;DHT22;38934;52.690;6.184;2024-03-29T03:48:07;7.50;99.90
53053;DHT22;38934;52.690;6.184;2024-03-29T03:50:33;7.50;99.90
53053;DHT22;38934;52.690;6.184;2024-03-29T03:52:59;7.50;99.90
53053;DHT22;38934;52.690;6.184;2024-03-29T03:55:25;7.50;99.90
53053;DHT22;38934;52.690;6.184;2024-03-29T03:57:52;7.60;99.90
53053;DHT22;38934;52.690;6.184;2024-03-29T04:00:18;7.60;99.90
53053;DHT22;38934;52.690;6.184;2024-03-29T04:02:48;7.60;99.90
53053;DHT22;38934;52.690;6.184;2024-03-29T04:05:18;7.60;99.90
53053;DHT22;38934;52.690;6.184;2024-03-29T04:07:44;7.60;99.90
53053;DHT22;38934;52.690;6.184;2024-03-29T04:10:10;7.60;99.90
53053;DHT22;38934;52.690;6.184;2024-03-29T04:12:35;8.00;99.90
53053;DHT22;38934;52.690;6.184;2024-03-29T04:15:01;8.10;99.90
53053;DHT22;38934;52.690;6.184;2024-03-29T04:17:28;7.60;99.90
53053;DHT22;38934;52.690;6.184;2024-03-29T04:19:56;7.70;99.90
53053;DHT22;38934;52.690;6.184;2024-03-29T04:22:22;7.70;99.90
53053;DHT22;38934;52.690;6.184;2024-03-29T04:24:48;7.70;99.90
53053;DHT22;38934;52.690;6.184;2024-03-29T04:27:14;8.20;99.90
53053;DHT22;38934;52.690;6.184;2024-03-29T04:29:40;7.80;99.90
53053;DHT22;38934;52.690;6.184;2024-03-29T04:32:06;7.80;99.90
53053;DHT22;38934;52.690;6.184;2024-03-29T04:34:31;7.80;99.90
53053;DHT22;38934;52.690;6.184;2024-03-29T04:36:57;8.30;99.90
53053;DHT22;38934;52.690;6.184;2024-03-29T04:39:23;7.80;99.90
53053;DHT22;38934;52.690;6.184;2024-03-29T04:41:48;8.10;99.90
53053;DHT22;38934;52.690;6.184;2024-03-29T04:44:27;7.80;99.90
53053;DHT22;38934;52.690;6.184;2024-03-29T04:46:53;7.80;99.90
53053;DHT22;38934;52.690;6.184;2024-03-29T04:49:21;7.80;99.90
53053;DHT22;38934;52.690;6.184;2024-03-29T04:51:59;8.00;99.90
53053;DHT22;38934;52.690;6.184;2024-03-29T04:54:25;8.30;99.90
53053;DHT22;38934;52.690;6.184;2024-03-29T04:56:51;8.40;99.90
53053;DHT22;38934;52.690;6.184;2024-03-29T04:59:17;7.90;99.90
53053;DHT22;38934;52.690;6.184;2024-03-29T05:01:47;8.00;99.90
53053;DHT22;38934;52.690;6.184;2024-03-29T05:04:16;7.90;99.90
53053;DHT22;38934;52.690;6.184;2024-03-29T05:06:44;7.90;99.90
53053;DHT22;38934;52.690;6.184;2024-03-29T05:09:10;7.90;99.90
53053;DHT22;38934;52.690;6.184;2024-03-29T05:11:37;8.20;99.90
53053;DHT22;38934;52.690;6.184;2024-03-29T05:14:03;7.90;99.90
53053;DHT22;38934;52.690;6.184;2024-03-29T05:16:29;8.00;99.90
53053;DHT22;38934;52.690;6.184;2024-03-29T05:18:55;7.90;99.90
53053;DHT22;38934;52.690;6.184;2024-03-29T05:21:21;8.00;99.90
53053;DHT22;38934;52.690;6.184;2024-03-29T05:23:46;7.90;99.90
53053;DHT22;38934;52.690;6.184;2024-03-29T05:26:12;8.50;99.90
53053;DHT22;38934;52.690;6.184;2024-03-29T05:28:37;8.00;99.90
53053;DHT22;38934;52.690;6.184;2024-03-29T05:31:13;7.90;99.90
53053;DHT22;38934;52.690;6.184;2024-03-29T05:33:43;8.00;99.90
53053;DHT22;38934;52.690;6.184;2024-03-29T05:36:10;8.00;99.90
53053;DHT22;38934;52.690;6.184;2024-03-29T05:38:39;8.30;99.90
53053;DHT22;38934;52.690;6.184;2024-03-29T05:41:04;8.10;99.90
53053;DHT22;38934;52.690;6.184;2024-03-29T05:43:30;8.40;99.90
53053;DHT22;38934;52.690;6.184;2024-03-29T05:45:56;8.50;99.90
53053;DHT22;38934;52.690;6.184;2024-03-29T05:48:22;8.20;99.90
53053;DHT22;38934;52.690;6.184;2024-03-29T05:50:48;8.10;99.90
53053;DHT22;38934;52.690;6.184;2024-03-29T05:53:13;8.10;99.90
53053;DHT22;38934;52.690;6.184;2024-03-29T05:55:39;8.70;99.90
53053;DHT22;38934;52.690;6.184;2024-03-29T05:58:05;8.10;99.90
53053;DHT22;38934;52.690;6.184;2024-03-29T06:00:32;8.10;99.90
53053;DHT22;38934;52.690;6.184;2024-03-29T06:03:04;8.20;99.90
53053;DHT22;38934;52.690;6.184;2024-03-29T06:05:30;8.20;99.90
53053;DHT22;38934;52.690;6.184;2024-03-29T06:07:55;8.20;99.90
53053;DHT22;38934;52.690;6.184;2024-03-29T06:10:21;8.20;99.90
53053;DHT22;38934;52.690;6.184;2024-03-29T06:12:47;8.20;99.90
53053;DHT22;38934;52.690;6.184;2024-03-29T06:15:12;8.30;99.90
53053;DHT22;38934;52.690;6.184;2024-03-29T06:17:57;8.30;99.90
53053;DHT22;38934;52.690;6.184;2024-03-29T06:20:23;8.40;99.90
53053;DHT22;38934;52.690;6.184;2024-03-29T06:22:49;8.40;99.90
53053;DHT22;38934;52.690;6.184;2024-03-29T06:25:15;8.40;99.90
53053;DHT22;38934;52.690;6.184;2024-03-29T06:27:41;8.40;99.90
53053;DHT22;38934;52.690;6.184;2024-03-29T06:30:13;8.40;99.90
53053;DHT22;38934;52.690;6.184;2024-03-29T06:32:40;8.40;99.90
53053;DHT22;38934;52.690;6.184;2024-03-29T06:35:05;8.50;99.90
53053;DHT22;38934;52.690;6.184;2024-03-29T06:37:32;8.50;99.90
53053;DHT22;38934;52.690;6.184;2024-03-29T06:39:57;8.50;99.90
53053;DHT22;38934;52.690;6.184;2024-03-29T06:42:23;8.50;99.90
53053;DHT22;38934;52.690;6.184;2024-03-29T06:44:49;8.50;99.90
53053;DHT22;38934;52.690;6.184;2024-03-29T06:47:15;8.70;99.90
53053;DHT22;38934;52.690;6.184;2024-03-29T06:49:41;8.70;99.90
53053;DHT22;38934;52.690;6.184;2024-03-29T06:52:06;8.60;99.90
53053;DHT22;38934;52.690;6.184;2024-03-29T06:54:32;8.60;99.90
53053;DHT22;38934;52.690;6.184;2024-03-29T06:56:58;8.90;99.90
53053;DHT22;38934;52.690;6.184;2024-03-29T06:59:24;9.00;99.90
53053;DHT22;38934;52.690;6.184;2024-03-29T07:01:50;8.70;99.90
53053;DHT22;38934;52.690;6.184;2024-03-29T07:04:26;9.00;99.90
53053;DHT22;38934;52.690;6.184;2024-03-29T07:06:54;8.60;99.90
53053;DHT22;38934;52.690;6.184;2024-03-29T07:09:20;8.60;99.90
53053;DHT22;38934;52.690;6.184;2024-03-29T07:11:47;8.60;99.90
53053;DHT22;38934;52.690;6.184;2024-03-29T07:14:16;8.60;99.90
53053;DHT22;38934;52.690;6.184;2024-03-29T07:16:45;8.60;99.90
53053;DHT22;38934;52.690;6.184;2024-03-29T07:19:12;8.60;99.90
53053;DHT22;38934;52.690;6.184;2024-03-29T07:21:44;8.50;99.90
53053;DHT22;38934;52.690;6.184;2024-03-29T07:24:10;8.60;99.90
53053;DHT22;38934;52.690;6.184;2024-03-29T07:26:36;8.80;99.90
53053;DHT22;38934;52.690;6.184;2024-03-29T07:29:02;8.70;99.90
53053;DHT22;38934;52.690;6.184;2024-03-29T07:31:30;8.70;99.90
53053;DHT22;38934;52.690;6.184;2024-03-29T07:33:56;8.80;99.90
53053;DHT22;38934;52.690;6.184;2024-03-29T07:36:21;8.90;99.90
53053;DHT22;38934;52.690;6.184;2024-03-29T07:38:50;8.90;99.90
53053;DHT22;38934;52.690;6.184;2024-03-29T07:41:15;9.00;99.90
53053;DHT22;38934;52.690;6.184;2024-03-29T07:43:51;9.00;99.90
53053;DHT22;38934;52.690;6.184;2024-03-29T07:46:17;9.10;99.90
53053;DHT22;38934;52.690;6.184;2024-03-29T07:48:43;9.20;99.90
53053;DHT22;38934;52.690;6.184;2024-03-29T07:51:09;9.40;99.90
53053;DHT22;38934;52.690;6.184;2024-03-29T07:53:35;9.30;99.90
53053;DHT22;38934;52.690;6.184;2024-03-29T07:56:00;9.30;99.90
53053;DHT22;38934;52.690;6.184;2024-03-29T07:58:26;9.40;99.90
53053;DHT22;38934;52.690;6.184;2024-03-29T08:00:52;10.00;99.90
53053;DHT22;38934;52.690;6.184;2024-03-29T08:03:19;9.50;99.90
53053;DHT22;38934;52.690;6.184;2024-03-29T08:05:58;9.40;99.90
53053;DHT22;38934;52.690;6.184;2024-03-29T08:08:24;9.40;99.90
53053;DHT22;38934;52.690;6.184;2024-03-29T08:10:53;9.50;99.90
53053;DHT22;38934;52.690;6.184;2024-03-29T08:13:20;9.50;99.90
53053;DHT22;38934;52.690;6.184;2024-03-29T08:15:47;9.50;99.90
53053;DHT22;38934;52.690;6.184;2024-03-29T08:18:13;9.50;99.90
53053;DHT22;38934;52.690;6.184;2024-03-29T08:20:39;9.60;99.90
53053;DHT22;38934;52.690;6.184;2024-03-29T08:23:04;9.70;99.90
53053;DHT22;38934;52.690;6.184;2024-03-29T08:25:30;9.80;99.90
53053;DHT22;38934;52.690;6.184;2024-03-29T08:27:55;9.90;99.90
53053;DHT22;38934;52.690;6.184;2024-03-29T08:30:25;10.00;99.90
53053;DHT22;38934;52.690;6.184;2024-03-29T08:32:51;10.10;99.90
53053;DHT22;38934;52.690;6.184;2024-03-29T08:35:18;10.20;99.90
53053;DHT22;38934;52.690;6.184;2024-03-29T08:37:45;10.30;99.90
53053;DHT22;38934;52.690;6.184;2024-03-29T08:40:11;10.20;99.90
53053;DHT22;38934;52.690;6.184;2024-03-29T08:42:37;10.30;99.90
53053;DHT22;38934;52.690;6.184;2024-03-29T08:45:03;10.40;99.90
53053;DHT22;38934;52.690;6.184;2024-03-29T08:47:31;10.40;99.90
53053;DHT22;38934;52.690;6.184;2024-03-29T08:49:57;10.50;99.90
53053;DHT22;38934;52.690;6.184;2024-03-29T08:52:22;10.40;99.90
53053;DHT22;38934;52.690;6.184;2024-03-29T08:54:48;10.50;99.90
53053;DHT22;38934;52.690;6.184;2024-03-29T08:57:14;10.50;99.90
53053;DHT22;38934;52.690;6.184;2024-03-29T08:59:39;10.50;99.90
53053;DHT22;38934;52.690;6.184;2024-03-29T09:02:06;10.50;99.90
53053;DHT22;38934;52.690;6.184;2024-03-29T09:04:32;10.80;99.90
53053;DHT22;38934;52.690;6.184;2024-03-29T09:07:00;10.80;99.90
53053;DHT22;38934;52.690;6.184;2024-03-29T09:09:28;10.90;99.90
53053;DHT22;38934;52.690;6.184;2024-03-29T09:11:53;10.90;99.90
53053;DHT22;38934;52.690;6.184;2024-03-29T09:14:20;10.90;99.90
53053;DHT22;38934;52.690;6.184;2024-03-29T09:16:46;10.90;99.90
53053;DHT22;38934;52.690;6.184;2024-03-29T09:19:13;10.90;99.90
53053;DHT22;38934;52.690;6.184;2024-03-29T09:21:39;10.90;99.90
53053;DHT22;38934;52.690;6.184;2024-03-29T09:24:05;10.90;99.90
53053;DHT22;38934;52.690;6.184;2024-03-29T09:26:32;10.80;99.90
53053;DHT22;38934;52.690;6.184;2024-03-29T09:28:58;10.80;99.90
53053;DHT22;38934;52.690;6.184;2024-03-29T09:31:23;10.90;99.90
53053;DHT22;38934;52.690;6.184;2024-03-29T09:33:49;10.90;99.90
53053;DHT22;38934;52.690;6.184;2024-03-29T09:36:21;11.00;99.90
53053;DHT22;38934;52.690;6.184;2024-03-29T09:38:50;11.10;99.90
53053;DHT22;38934;52.690;6.184;2024-03-29T09:41:17;11.10;99.90
53053;DHT22;38934;52.690;6.184;2024-03-29T09:43:48;11.20;99.90
53053;DHT22;38934;52.690;6.184;2024-03-29T09:46:14;11.30;99.90
53053;DHT22;38934;52.690;6.184;2024-03-29T09:48:41;11.30;99.90
53053;DHT22;38934;52.690;6.184;2024-03-29T09:51:08;11.50;99.90
53053;DHT22;38934;52.690;6.184;2024-03-29T09:53:35;11.50;99.90
53053;DHT22;38934;52.690;6.184;2024-03-29T09:56:06;11.50;99.90
53053;DHT22;38934;52.690;6.184;2024-03-29T09:58:32;11.60;99.90
53053;DHT22;38934;52.690;6.184;2024-03-29T10:00:58;11.70;99.90
53053;DHT22;38934;52.690;6.184;2024-03-29T10:03:25;11.70;99.90
53053;DHT22;38934;52.690;6.184;2024-03-29T10:06:01;11.70;99.90
53053;DHT22;38934;52.690;6.184;2024-03-29T10:08:28;11.70;99.90
53053;DHT22;38934;52.690;6.184;2024-03-29T10:10:56;11.70;99.90
53053;DHT22;38934;52.690;6.184;2024-03-29T10:13:22;11.70;99.90
53053;DHT22;38934;52.690;6.184;2024-03-29T10:15:51;11.70;99.90
53053;DHT22;38934;52.690;6.184;2024-03-29T10:18:19;11.60;99.90
53053;DHT22;38934;52.690;6.184;2024-03-29T10:20:46;11.60;99.90
53053;DHT22;38934;52.690;6.184;2024-03-29T10:23:11;11.60;99.90
53053;DHT22;38934;52.690;6.184;2024-03-29T10:25:37;11.70;99.90
53053;DHT22;38934;52.690;6.184;2024-03-29T10:28:03;11.80;99.90
53053;DHT22;38934;52.690;6.184;2024-03-29T10:30:29;11.80;99.90
53053;DHT22;38934;52.690;6.184;2024-03-29T10:32:58;12.00;99.90
53053;DHT22;38934;52.690;6.184;2024-03-29T10:35:25;12.10;99.90
53053;DHT22;38934;52.690;6.184;2024-03-29T10:37:54;12.10;99.90
53053;DHT22;38934;52.690;6.184;2024-03-29T10:40:24;12.10;99.90
53053;DHT22;38934;52.690;6.184;2024-03-29T10:42:52;12.30;99.90
53053;DHT22;38934;52.690;6.184;2024-03-29T10:45:17;12.50;99.90
53053;DHT22;38934;52.690;6.184;2024-03-29T10:47:44;12.50;99.90
53053;DHT22;38934;52.690;6.184;2024-03-29T10:50:12;12.50;99.90
53053;DHT22;38934;52.690;6.184;2024-03-29T10:52:39;12.60;99.90
53053;DHT22;38934;52.690;6.184;2024-03-29T10:55:08;12.60;99.90
53053;DHT22;38934;52.690;6.184;2024-03-29T10:57:35;12.60;99.90
53053;DHT22;38934;52.690;6.184;2024-03-29T11:00:11;12.50;99.90
53053;DHT22;38934;52.690;6.184;2024-03-29T11:03:09;12.60;99.90
53053;DHT22;38934;52.690;6.184;2024-03-29T11:05:49;12.60;99.90
53053;DHT22;38934;52.690;6.184;2024-03-29T11:08:26;12.70;99.90
53053;DHT22;38934;52.690;6.184;2024-03-29T11:10:58;13.00;99.90
53053;DHT22;38934;52.690;6.184;2024-03-29T11:14:02;13.00;99.90
53053;DHT22;38934;52.690;6.184;2024-03-29T11:16:29;13.00;99.90
53053;DHT22;38934;52.690;6.184;2024-03-29T11:18:54;13.00;99.90
53053;DHT22;38934;52.690;6.184;2024-03-29T11:21:20;13.00;99.90
53053;DHT22;38934;52.690;6.184;2024-03-29T11:23:52;13.10;99.90
53053;DHT22;38934;52.690;6.184;2024-03-29T11:26:19;13.10;99.90
53053;DHT22;38934;52.690;6.184;2024-03-29T11:28:51;13.10;99.90
53053;DHT22;38934;52.690;6.184;2024-03-29T11:31:17;13.10;99.90
53053;DHT22;38934;52.690;6.184;2024-03-29T11:33:48;13.10;99.90
53053;DHT22;38934;52.690;6.184;2024-03-29T11:36:28;13.10;99.90
53053;DHT22;38934;52.690;6.184;2024-03-29T11:38:56;13.00;99.90
53053;DHT22;38934;52.690;6.184;2024-03-29T11:41:26;13.00;99.90
53053;DHT22;38934;52.690;6.184;2024-03-29T11:43:55;13.00;99.90
53053;DHT22;38934;52.690;6.184;2024-03-29T11:46:22;13.00;99.90
53053;DHT22;38934;52.690;6.184;2024-03-29T11:48:48;13.10;99.90
53053;DHT22;38934;52.690;6.184;2024-03-29T11:51:21;13.10;99.90
53053;DHT22;38934;52.690;6.184;2024-03-29T11:53:49;13.20;99.90
53053;DHT22;38934;52.690;6.184;2024-03-29T11:56:18;13.30;99.90
53053;DHT22;38934;52.690;6.184;2024-03-29T11:58:45;13.30;99.90
53053;DHT22;38934;52.690;6.184;2024-03-29T12:01:11;13.30;99.90
53053;DHT22;38934;52.690;6.184;2024-03-29T12:03:40;13.40;99.90
53053;DHT22;38934;52.690;6.184;2024-03-29T12:06:06;13.50;99.90
53053;DHT22;38934;52.690;6.184;2024-03-29T12:08:33;13.70;99.90
53053;DHT22;38934;52.690;6.184;2024-03-29T12:11:00;13.80;99.90
53053;DHT22;38934;52.690;6.184;2024-03-29T12:13:27;13.90;99.90
53053;DHT22;38934;52.690;6.184;2024-03-29T12:15:53;13.90;99.90
53053;DHT22;38934;52.690;6.184;2024-03-29T12:18:23;13.80;99.90
53053;DHT22;38934;52.690;6.184;2024-03-29T12:20:49;13.70;99.90
53053;DHT22;38934;52.690;6.184;2024-03-29T12:23:17;13.60;99.90
53053;DHT22;38934;52.690;6.184;2024-03-29T12:25:43;13.50;99.90
53053;DHT22;38934;52.690;6.184;2024-03-29T12:28:10;13.50;99.90
53053;DHT22;38934;52.690;6.184;2024-03-29T12:30:37;13.50;99.90
53053;DHT22;38934;52.690;6.184;2024-03-29T12:33:08;13.40;99.90
53053;DHT22;38934;52.690;6.184;2024-03-29T12:35:35;13.30;99.90
53053;DHT22;38934;52.690;6.184;2024-03-29T12:38:05;13.30;99.90
53053;DHT22;38934;52.690;6.184;2024-03-29T12:40:33;13.30;99.90
53053;DHT22;38934;52.690;6.184;2024-03-29T12:43:04;13.40;99.90
53053;DHT22;38934;52.690;6.184;2024-03-29T12:45:31;13.50;99.90
53053;DHT22;38934;52.690;6.184;2024-03-29T12:47:57;13.50;99.90
53053;DHT22;38934;52.690;6.184;2024-03-29T12:50:26;13.40;99.90
53053;DHT22;38934;52.690;6.184;2024-03-29T12:53:12;13.30;99.90
53053;DHT22;38934;52.690;6.184;2024-03-29T12:55:40;13.20;99.90
53053;DHT22;38934;52.690;6.184;2024-03-29T12:58:07;13.20;99.90
53053;DHT22;38934;52.690;6.184;2024-03-29T13:00:35;13.30;99.90
53053;DHT22;38934;52.690;6.184;2024-03-29T13:03:05;13.40;99.90
53053;DHT22;38934;52.690;6.184;2024-03-29T13:05:31;13.70;99.90
53053;DHT22;38934;52.690;6.184;2024-03-29T13:08:04;13.80;99.90
53053;DHT22;38934;52.690;6.184;2024-03-29T13:10:30;14.00;99.90
53053;DHT22;38934;52.690;6.184;2024-03-29T13:12:56;14.10;99.90
53053;DHT22;38934;52.690;6.184;2024-03-29T13:15:23;14.20;99.90
53053;DHT22;38934;52.690;6.184;2024-03-29T13:17:51;14.20;99.90
53053;DHT22;38934;52.690;6.184;2024-03-29T13:20:17;14.30;99.90
53053;DHT22;38934;52.690;6.184;2024-03-29T13:22:46;14.40;99.90
53053;DHT22;38934;52.690;6.184;2024-03-29T13:25:13;14.40;99.90
53053;DHT22;38934;52.690;6.184;2024-03-29T13:27:40;14.30;99.90
53053;DHT22;38934;52.690;6.184;2024-03-29T13:30:07;14.30;99.90
53053;DHT22;38934;52.690;6.184;2024-03-29T13:32:34;14.20;99.90
53053;DHT22;38934;52.690;6.184;2024-03-29T13:35:00;14.10;99.90
53053;DHT22;38934;52.690;6.184;2024-03-29T13:37:26;14.00;99.90
53053;DHT22;38934;52.690;6.184;2024-03-29T13:39:54;14.00;99.90
53053;DHT22;38934;52.690;6.184;2024-03-29T13:42:20;13.90;99.90
53053;DHT22;38934;52.690;6.184;2024-03-29T13:44:49;13.90;99.90
53053;DHT22;38934;52.690;6.184;2024-03-29T13:47:14;14.00;99.90
53053;DHT22;38934;52.690;6.184;2024-03-29T13:49:42;14.00;99.90
53053;DHT22;38934;52.690;6.184;2024-03-29T13:52:11;14.10;99.90
53053;DHT22;38934;52.690;6.184;2024-03-29T13:54:37;14.10;99.90
53053;DHT22;38934;52.690;6.184;2024-03-29T13:57:03;14.10;99.90
53053;DHT22;38934;52.690;6.184;2024-03-29T13:59:32;14.20;99.90
53053;DHT22;38934;52.690;6.184;2024-03-29T14:01:58;14.20;99.90
53053;DHT22;38934;52.690;6.184;2024-03-29T14:04:24;14.20;99.90
53053;DHT22;38934;52.690;6.184;2024-03-29T14:06:50;14.20;99.90
53053;DHT22;38934;52.690;6.184;2024-03-29T14:09:16;14.20;99.90
53053;DHT22;38934;52.690;6.184;2024-03-29T14:11:43;14.10;99.90
53053;DHT22;38934;52.690;6.184;2024-03-29T14:14:09;14.10;99.90
53053;DHT22;38934;52.690;6.184;2024-03-29T14:16:37;14.20;99.90
53053;DHT22;38934;52.690;6.184;2024-03-29T14:19:03;14.20;99.90
53053;DHT22;38934;52.690;6.184;2024-03-29T14:21:29;14.20;99.90
53053;DHT22;38934;52.690;6.184;2024-03-29T14:23:56;14.30;99.90
53053;DHT22;38934;52.690;6.184;2024-03-29T14:26:22;14.40;99.90
53053;DHT22;38934;52.690;6.184;2024-03-29T14:28:48;14.40;99.90
53053;DHT22;38934;52.690;6.184;2024-03-29T14:31:13;14.60;99.90
53053;DHT22;38934;52.690;6.184;2024-03-29T14:33:39;14.70;99.90
53053;DHT22;38934;52.690;6.184;2024-03-29T14:36:05;14.80;99.90
53053;DHT22;38934;52.690;6.184;2024-03-29T14:38:30;14.70;99.90
53053;DHT22;38934;52.690;6.184;2024-03-29T14:40:56;14.70;99.90
53053;DHT22;38934;52.690;6.184;2024-03-29T14:43:21;14.60;99.90
53053;DHT22;38934;52.690;6.184;2024-03-29T14:45:48;14.60;99.90
53053;DHT22;38934;52.690;6.184;2024-03-29T14:48:18;14.50;99.90
53053;DHT22;38934;52.690;6.184;2024-03-29T14:50:44;14.50;99.90
53053;DHT22;38934;52.690;6.184;2024-03-29T14:53:09;14.50;99.90
53053;DHT22;38934;52.690;6.184;2024-03-29T14:55:35;14.60;99.90
53053;DHT22;38934;52.690;6.184;2024-03-29T14:58:05;14.60;99.90
53053;DHT22;38934;52.690;6.184;2024-03-29T15:00:31;14.70;99.90
53053;DHT22;38934;52.690;6.184;2024-03-29T15:02:57;14.70;99.90
53053;DHT22;38934;52.690;6.184;2024-03-29T15:05:22;14.70;99.90
53053;DHT22;38934;52.690;6.184;2024-03-29T15:07:51;14.70;99.90
53053;DHT22;38934;52.690;6.184;2024-03-29T15:10:17;14.60;99.90
53053;DHT22;38934;52.690;6.184;2024-03-29T15:12:45;14.60;99.90
53053;DHT22;38934;52.690;6.184;2024-03-29T15:15:12;14.50;99.90
53053;DHT22;38934;52.690;6.184;2024-03-29T15:17:37;14.40;99.90
53053;DHT22;38934;52.690;6.184;2024-03-29T15:20:04;14.50;99.90
53053;DHT22;38934;52.690;6.184;2024-03-29T15:22:31;14.50;99.90
53053;DHT22;38934;52.690;6.184;2024-03-29T15:24:58;14.50;99.90
53053;DHT22;38934;52.690;6.184;2024-03-29T15:27:27;14.50;99.90
53053;DHT22;38934;52.690;6.184;2024-03-29T15:30:13;14.40;99.90
53053;DHT22;38934;52.690;6.184;2024-03-29T15:32:39;14.40;99.90
53053;DHT22;38934;52.690;6.184;2024-03-29T15:35:05;14.30;99.90
53053;DHT22;38934;52.690;6.184;2024-03-29T15:37:31;14.30;99.90
53053;DHT22;38934;52.690;6.184;2024-03-29T15:39:56;14.20;99.90